Chiwapa, Mississippi
Current Conditions -  °F | °C
As of 3:53 AM on Thursday 29 Jan 2015 (Local Time) from KTUP Reporting Station
Clear Clear  
Wind Chill: 39°   Ceiling: Unl
Heat Index: 44°   Visibility: 10mi
Dew Point: 32°   Wind: 10mph
Humidity: 63%   Direction: 200°SSW
Pressure: 30.12"   Gusts: NA
Location:  34.1762°N, 88.9612°W
Report Text: KTUP 290953Z AUTO 20009KT 10SM CLR 07/00 A3012 RMK AO2 SLP200 T00670000
Loading
Personal Weather Stations






























Interactive Weather Map New forecast layout! Learn more

10-Day Weather Forecast

Advertisements
Track Severe Weather on mobile